sensor_id;sensor_type;location;lat;lon;timestamp;pressure;altitude;pressure_sealevel;temperature;humidity
4858;BME280;58975;51.978;8.472;2022-12-29T00:02:03;99035.06;;;9.23;100.00
4858;BME280;58975;51.978;8.472;2022-12-29T00:07:00;99036.63;;;9.16;100.00
4858;BME280;58975;51.978;8.472;2022-12-29T00:11:56;99029.06;;;9.21;100.00
4858;BME280;58975;51.978;8.472;2022-12-29T00:16:53;99011.75;;;9.17;100.00
4858;BME280;58975;51.978;8.472;2022-12-29T00:21:50;99015.94;;;9.19;100.00
4858;BME280;58975;51.978;8.472;2022-12-29T00:32:20;98982.47;;;9.26;100.00
4858;BME280;58975;51.978;8.472;2022-12-29T00:37:37;98983.16;;;9.28;100.00
4858;BME280;58975;51.978;8.472;2022-12-29T00:42:55;98992.66;;;9.31;100.00
4858;BME280;58975;51.978;8.472;2022-12-29T00:48:10;98980.50;;;9.28;100.00
4858;BME280;58975;51.978;8.472;2022-12-29T00:53:07;98968.22;;;9.27;100.00
4858;BME280;58975;51.978;8.472;2022-12-29T00:58:03;98969.63;;;9.22;100.00
4858;BME280;58975;51.978;8.472;2022-12-29T01:03:00;98949.91;;;9.24;100.00
4858;BME280;58975;51.978;8.472;2022-12-29T01:07:56;98940.13;;;9.25;100.00
4858;BME280;58975;51.978;8.472;2022-12-29T01:12:53;98946.25;;;9.25;100.00
4858;BME280;58975;51.978;8.472;2022-12-29T01:17:49;98954.09;;;9.27;100.00
4858;BME280;58975;51.978;8.472;2022-12-29T01:22:45;98945.13;;;9.28;100.00
4858;BME280;58975;51.978;8.472;2022-12-29T01:27:42;98945.38;;;9.34;100.00
4858;BME280;58975;51.978;8.472;2022-12-29T01:32:38;98932.78;;;9.36;100.00
4858;BME280;58975;51.978;8.472;2022-12-29T01:37:34;98940.56;;;9.38;100.00
4858;BME280;58975;51.978;8.472;2022-12-29T01:42:31;98924.41;;;9.31;100.00
4858;BME280;58975;51.978;8.472;2022-12-29T01:52:32;98910.69;;;9.36;100.00
4858;BME280;58975;51.978;8.472;2022-12-29T01:57:34;98910.91;;;9.42;100.00
4858;BME280;58975;51.978;8.472;2022-12-29T02:02:32;98901.13;;;9.43;100.00
4858;BME280;58975;51.978;8.472;2022-12-29T02:07:29;98913.16;;;9.37;100.00
4858;BME280;58975;51.978;8.472;2022-12-29T02:12:26;98910.22;;;9.23;100.00
4858;BME280;58975;51.978;8.472;2022-12-29T02:22:27;98900.44;;;9.06;100.00
4858;BME280;58975;51.978;8.472;2022-12-29T02:27:51;98884.50;;;9.06;100.00
4858;BME280;58975;51.978;8.472;2022-12-29T02:32:57;98904.28;;;9.11;100.00
4858;BME280;58975;51.978;8.472;2022-12-29T02:38:07;98885.63;;;9.21;100.00
4858;BME280;58975;51.978;8.472;2022-12-29T02:43:07;98890.13;;;9.20;100.00
4858;BME280;58975;51.978;8.472;2022-12-29T02:48:15;98873.81;;;9.33;100.00
4858;BME280;58975;51.978;8.472;2022-12-29T02:53:15;98864.75;;;9.43;100.00
4858;BME280;58975;51.978;8.472;2022-12-29T02:58:16;98854.41;;;9.58;100.00
4858;BME280;58975;51.978;8.472;2022-12-29T03:03:23;98847.19;;;9.68;100.00
4858;BME280;58975;51.978;8.472;2022-12-29T03:08:37;98851.22;;;9.80;100.00
4858;BME280;58975;51.978;8.472;2022-12-29T03:13:43;98840.66;;;9.88;100.00
4858;BME280;58975;51.978;8.472;2022-12-29T03:19:03;98843.69;;;9.93;100.00
4858;BME280;58975;51.978;8.472;2022-12-29T03:24:02;98852.34;;;9.95;100.00
4858;BME280;58975;51.978;8.472;2022-12-29T03:28:59;98842.06;;;10.01;100.00
4858;BME280;58975;51.978;8.472;2022-12-29T03:33:56;98836.72;;;10.01;100.00
4858;BME280;58975;51.978;8.472;2022-12-29T03:38:58;98839.44;;;10.09;100.00
4858;BME280;58975;51.978;8.472;2022-12-29T03:43:57;98835.44;;;10.05;100.00
4858;BME280;58975;51.978;8.472;2022-12-29T03:48:53;98832.44;;;10.08;100.00
4858;BME280;58975;51.978;8.472;2022-12-29T03:53:49;98822.34;;;10.11;100.00
4858;BME280;58975;51.978;8.472;2022-12-29T03:58:46;98822.91;;;10.15;100.00
4858;BME280;58975;51.978;8.472;2022-12-29T04:03:43;98819.59;;;10.21;100.00
4858;BME280;58975;51.978;8.472;2022-12-29T04:08:39;98806.44;;;10.19;100.00
4858;BME280;58975;51.978;8.472;2022-12-29T04:13:36;98819.59;;;10.21;100.00
4858;BME280;58975;51.978;8.472;2022-12-29T04:18:33;98831.44;;;10.26;100.00
4858;BME280;58975;51.978;8.472;2022-12-29T04:23:32;98817.13;;;10.27;100.00
4858;BME280;58975;51.978;8.472;2022-12-29T04:28:29;98817.66;;;10.31;100.00
4858;BME280;58975;51.978;8.472;2022-12-29T04:33:26;98830.25;;;10.29;100.00
4858;BME280;58975;51.978;8.472;2022-12-29T04:38:23;98819.00;;;10.35;100.00
4858;BME280;58975;51.978;8.472;2022-12-29T04:43:19;98806.69;;;10.34;100.00
4858;BME280;58975;51.978;8.472;2022-12-29T04:48:17;98811.28;;;10.24;100.00
4858;BME280;58975;51.978;8.472;2022-12-29T04:53:14;98791.75;;;10.07;100.00
4858;BME280;58975;51.978;8.472;2022-12-29T04:58:11;98784.38;;;10.01;100.00
4858;BME280;58975;51.978;8.472;2022-12-29T05:03:14;98794.19;;;10.01;100.00
4858;BME280;58975;51.978;8.472;2022-12-29T05:08:10;98794.19;;;10.01;100.00
4858;BME280;58975;51.978;8.472;2022-12-29T05:13:07;98786.25;;;10.09;100.00
4858;BME280;58975;51.978;8.472;2022-12-29T05:18:03;98777.91;;;10.04;100.00
4858;BME280;58975;51.978;8.472;2022-12-29T05:22:59;98778.22;;;10.01;100.00
4858;BME280;58975;51.978;8.472;2022-12-29T05:27:56;98759.56;;;9.92;100.00
4858;BME280;58975;51.978;8.472;2022-12-29T05:32:52;98757.09;;;9.91;100.00
4858;BME280;58975;51.978;8.472;2022-12-29T05:37:49;98756.63;;;10.04;100.00
4858;BME280;58975;51.978;8.472;2022-12-29T05:42:45;98751.00;;;10.07;100.00
4858;BME280;58975;51.978;8.472;2022-12-29T05:47:42;98746.53;;;10.07;100.00
4858;BME280;58975;51.978;8.472;2022-12-29T05:52:38;98745.75;;;10.15;100.00
4858;BME280;58975;51.978;8.472;2022-12-29T05:57:35;98742.22;;;10.14;100.00
4858;BME280;58975;51.978;8.472;2022-12-29T06:02:31;98760.06;;;10.22;100.00
4858;BME280;58975;51.978;8.472;2022-12-29T06:07:28;98751.91;;;10.23;100.00
4858;BME280;58975;51.978;8.472;2022-12-29T06:12:25;98748.47;;;10.31;100.00
4858;BME280;58975;51.978;8.472;2022-12-29T06:17:21;98750.47;;;10.37;100.00
4858;BME280;58975;51.978;8.472;2022-12-29T06:22:18;98757.81;;;10.35;100.00
4858;BME280;58975;51.978;8.472;2022-12-29T06:27:14;98789.41;;;10.38;100.00
4858;BME280;58975;51.978;8.472;2022-12-29T06:32:11;98833.50;;;9.89;100.00
4858;BME280;58975;51.978;8.472;2022-12-29T06:37:08;98817.47;;;8.76;100.00
4858;BME280;58975;51.978;8.472;2022-12-29T06:42:04;98844.19;;;8.47;100.00
4858;BME280;58975;51.978;8.472;2022-12-29T06:47:00;98845.09;;;8.38;100.00
4858;BME280;58975;51.978;8.472;2022-12-29T06:51:57;98843.28;;;8.39;100.00
4858;BME280;58975;51.978;8.472;2022-12-29T06:56:55;98838.25;;;8.36;100.00
4858;BME280;58975;51.978;8.472;2022-12-29T07:01:52;98845.22;;;8.37;100.00
4858;BME280;58975;51.978;8.472;2022-12-29T07:06:49;98862.13;;;8.36;100.00
4858;BME280;58975;51.978;8.472;2022-12-29T07:11:45;98860.72;;;8.41;100.00
4858;BME280;58975;51.978;8.472;2022-12-29T07:16:42;98860.84;;;8.67;100.00
4858;BME280;58975;51.978;8.472;2022-12-29T07:21:38;98868.09;;;8.92;100.00
4858;BME280;58975;51.978;8.472;2022-12-29T07:26:42;98880.00;;;8.88;100.00
4858;BME280;58975;51.978;8.472;2022-12-29T07:31:39;98866.09;;;8.94;100.00
4858;BME280;58975;51.978;8.472;2022-12-29T07:36:35;98881.00;;;9.05;100.00
4858;BME280;58975;51.978;8.472;2022-12-29T07:41:31;98881.28;;;9.37;100.00
4858;BME280;58975;51.978;8.472;2022-12-29T07:46:28;98895.34;;;9.30;100.00
4858;BME280;58975;51.978;8.472;2022-12-29T07:51:44;98901.09;;;9.25;100.00
4858;BME280;58975;51.978;8.472;2022-12-29T07:56:40;98905.28;;;9.28;100.00
4858;BME280;58975;51.978;8.472;2022-12-29T08:01:37;98911.03;;;9.41;100.00
4858;BME280;58975;51.978;8.472;2022-12-29T08:06:33;98907.28;;;9.43;100.00
4858;BME280;58975;51.978;8.472;2022-12-29T08:11:30;98923.34;;;9.42;100.00
4858;BME280;58975;51.978;8.472;2022-12-29T08:16:26;98932.84;;;9.62;100.00
4858;BME280;58975;51.978;8.472;2022-12-29T08:21:23;98922.94;;;9.72;100.00
4858;BME280;58975;51.978;8.472;2022-12-29T08:26:19;98942.56;;;9.71;100.00
4858;BME280;58975;51.978;8.472;2022-12-29T08:31:15;98932.97;;;9.78;100.00
4858;BME280;58975;51.978;8.472;2022-12-29T08:36:12;98934.41;;;9.73;100.00
4858;BME280;58975;51.978;8.472;2022-12-29T08:41:08;98948.13;;;9.60;100.00
4858;BME280;58975;51.978;8.472;2022-12-29T08:46:05;98956.22;;;9.41;100.00
4858;BME280;58975;51.978;8.472;2022-12-29T08:51:01;98956.66;;;9.19;100.00
4858;BME280;58975;51.978;8.472;2022-12-29T08:55:59;98952.53;;;9.07;100.00
4858;BME280;58975;51.978;8.472;2022-12-29T09:01:01;98968.78;;;8.76;100.00
4858;BME280;58975;51.978;8.472;2022-12-29T09:05:57;98966.41;;;8.73;100.00
4858;BME280;58975;51.978;8.472;2022-12-29T09:10:54;98970.34;;;8.69;100.00
4858;BME280;58975;51.978;8.472;2022-12-29T09:15:58;98963.75;;;8.73;100.00
4858;BME280;58975;51.978;8.472;2022-12-29T09:21:02;98962.59;;;8.85;100.00
4858;BME280;58975;51.978;8.472;2022-12-29T09:25:59;98959.03;;;8.94;100.00
4858;BME280;58975;51.978;8.472;2022-12-29T09:30:56;98958.00;;;9.05;100.00
4858;BME280;58975;51.978;8.472;2022-12-29T09:35:55;98963.94;;;9.17;100.00
4858;BME280;58975;51.978;8.472;2022-12-29T09:41:01;98972.69;;;9.27;100.00
4858;BME280;58975;51.978;8.472;2022-12-29T09:51:22;98989.31;;;9.29;100.00
4858;BME280;58975;51.978;8.472;2022-12-29T09:56:21;98999.94;;;9.29;100.00
4858;BME280;58975;51.978;8.472;2022-12-29T10:06:44;98996.28;;;9.30;100.00
4858;BME280;58975;51.978;8.472;2022-12-29T10:12:28;98987.34;;;9.31;100.00
4858;BME280;58975;51.978;8.472;2022-12-29T10:22:48;99003.50;;;9.37;100.00
4858;BME280;58975;51.978;8.472;2022-12-29T10:27:50;98978.25;;;9.51;100.00
4858;BME280;58975;51.978;8.472;2022-12-29T10:32:56;98996.56;;;9.72;100.00
4858;BME280;58975;51.978;8.472;2022-12-29T10:38:25;98988.63;;;9.97;100.00
4858;BME280;58975;51.978;8.472;2022-12-29T10:43:28;98995.19;;;10.03;100.00
4858;BME280;58975;51.978;8.472;2022-12-29T10:48:28;98979.75;;;10.07;100.00
4858;BME280;58975;51.978;8.472;2022-12-29T10:53:38;98989.38;;;10.08;100.00
4858;BME280;58975;51.978;8.472;2022-12-29T10:58:36;98986.19;;;10.04;100.00
4858;BME280;58975;51.978;8.472;2022-12-29T11:03:42;98981.09;;;10.11;100.00
4858;BME280;58975;51.978;8.472;2022-12-29T11:08:53;98995.31;;;10.02;100.00
4858;BME280;58975;51.978;8.472;2022-12-29T11:14:17;98991.63;;;9.94;100.00
4858;BME280;58975;51.978;8.472;2022-12-29T11:19:22;98988.56;;;9.89;100.00
4858;BME280;58975;51.978;8.472;2022-12-29T11:24:28;98978.38;;;9.85;100.00
4858;BME280;58975;51.978;8.472;2022-12-29T11:29:29;99000.50;;;9.85;100.00
4858;BME280;58975;51.978;8.472;2022-12-29T11:34:34;98997.84;;;9.85;100.00
4858;BME280;58975;51.978;8.472;2022-12-29T11:44:41;99012.44;;;9.81;100.00
4858;BME280;58975;51.978;8.472;2022-12-29T11:49:38;99010.16;;;9.86;100.00
4858;BME280;58975;51.978;8.472;2022-12-29T11:54:36;99018.53;;;9.91;100.00
4858;BME280;58975;51.978;8.472;2022-12-29T11:59:36;99019.56;;;9.98;100.00
4858;BME280;58975;51.978;8.472;2022-12-29T12:04:35;99022.06;;;10.00;100.00
4858;BME280;58975;51.978;8.472;2022-12-29T12:09:34;99007.63;;;10.03;100.00
4858;BME280;58975;51.978;8.472;2022-12-29T12:14:37;99022.91;;;10.01;100.00
4858;BME280;58975;51.978;8.472;2022-12-29T12:19:56;99011.66;;;10.07;100.00
4858;BME280;58975;51.978;8.472;2022-12-29T12:25:02;99037.03;;;10.01;100.00
4858;BME280;58975;51.978;8.472;2022-12-29T12:30:11;99023.44;;;10.04;100.00
4858;BME280;58975;51.978;8.472;2022-12-29T12:35:15;99032.63;;;10.10;100.00
4858;BME280;58975;51.978;8.472;2022-12-29T12:57:17;99061.19;;;10.08;100.00
4858;BME280;58975;51.978;8.472;2022-12-29T13:02:34;99053.22;;;10.08;100.00
4858;BME280;58975;51.978;8.472;2022-12-29T13:07:55;99077.00;;;10.09;100.00
4858;BME280;58975;51.978;8.472;2022-12-29T13:18:52;99097.06;;;10.04;100.00
4858;BME280;58975;51.978;8.472;2022-12-29T13:24:02;99068.28;;;9.99;100.00
4858;BME280;58975;51.978;8.472;2022-12-29T13:29:05;99097.00;;;9.95;100.00
4858;BME280;58975;51.978;8.472;2022-12-29T13:34:25;99105.25;;;9.92;100.00
4858;BME280;58975;51.978;8.472;2022-12-29T13:44:40;99132.25;;;9.80;100.00
4858;BME280;58975;51.978;8.472;2022-12-29T13:49:37;99139.81;;;9.75;100.00
4858;BME280;58975;51.978;8.472;2022-12-29T13:59:42;99139.66;;;9.76;100.00
4858;BME280;58975;51.978;8.472;2022-12-29T14:04:56;99162.19;;;9.72;100.00
4858;BME280;58975;51.978;8.472;2022-12-29T14:09:55;99166.16;;;9.68;100.00
4858;BME280;58975;51.978;8.472;2022-12-29T14:14:52;99163.69;;;9.57;100.00
4858;BME280;58975;51.978;8.472;2022-12-29T14:19:52;99165.66;;;9.55;100.00
4858;BME280;58975;51.978;8.472;2022-12-29T14:24:49;99176.06;;;9.39;100.00
4858;BME280;58975;51.978;8.472;2022-12-29T14:29:48;99173.34;;;9.21;100.00
4858;BME280;58975;51.978;8.472;2022-12-29T14:34:44;99193.66;;;9.03;100.00
4858;BME280;58975;51.978;8.472;2022-12-29T14:39:47;99194.78;;;8.91;100.00
4858;BME280;58975;51.978;8.472;2022-12-29T14:44:52;99191.28;;;8.90;100.00
4858;BME280;58975;51.978;8.472;2022-12-29T14:49:49;99194.34;;;8.95;100.00
4858;BME280;58975;51.978;8.472;2022-12-29T14:54:51;99185.97;;;9.00;100.00
4858;BME280;58975;51.978;8.472;2022-12-29T14:59:53;99195.28;;;9.14;100.00
4858;BME280;58975;51.978;8.472;2022-12-29T15:04:51;99193.22;;;9.17;100.00
4858;BME280;58975;51.978;8.472;2022-12-29T15:10:13;99188.88;;;9.16;100.00
4858;BME280;58975;51.978;8.472;2022-12-29T15:15:22;99205.34;;;9.20;100.00
4858;BME280;58975;51.978;8.472;2022-12-29T15:25:20;99217.22;;;9.25;100.00
4858;BME280;58975;51.978;8.472;2022-12-29T15:30:17;99210.38;;;9.23;100.00
4858;BME280;58975;51.978;8.472;2022-12-29T15:35:36;99218.09;;;9.16;100.00
4858;BME280;58975;51.978;8.472;2022-12-29T15:40:33;99229.97;;;9.12;100.00
4858;BME280;58975;51.978;8.472;2022-12-29T15:45:33;99229.81;;;9.14;100.00
4858;BME280;58975;51.978;8.472;2022-12-29T15:50:35;99235.28;;;9.12;100.00
4858;BME280;58975;51.978;8.472;2022-12-29T15:55:35;99238.38;;;9.08;100.00
4858;BME280;58975;51.978;8.472;2022-12-29T16:00:35;99243.25;;;9.12;100.00
4858;BME280;58975;51.978;8.472;2022-12-29T16:05:35;99249.66;;;9.10;100.00
4858;BME280;58975;51.978;8.472;2022-12-29T16:10:39;99244.25;;;9.01;100.00
4858;BME280;58975;51.978;8.472;2022-12-29T16:15:37;99245.22;;;9.00;100.00
4858;BME280;58975;51.978;8.472;2022-12-29T16:20:39;99253.06;;;8.92;100.00
4858;BME280;58975;51.978;8.472;2022-12-29T16:25:37;99250.28;;;8.84;100.00
4858;BME280;58975;51.978;8.472;2022-12-29T16:30:33;99245.09;;;8.83;100.00
4858;BME280;58975;51.978;8.472;2022-12-29T16:35:45;99245.81;;;8.85;100.00
4858;BME280;58975;51.978;8.472;2022-12-29T16:40:58;99248.72;;;8.91;100.00
4858;BME280;58975;51.978;8.472;2022-12-29T16:51:05;99242.41;;;9.12;100.00
4858;BME280;58975;51.978;8.472;2022-12-29T16:56:15;99261.16;;;9.00;100.00
4858;BME280;58975;51.978;8.472;2022-12-29T17:01:12;99259.47;;;8.99;100.00
4858;BME280;58975;51.978;8.472;2022-12-29T17:06:19;99264.78;;;8.99;100.00
4858;BME280;58975;51.978;8.472;2022-12-29T17:11:31;99262.28;;;9.08;100.00
4858;BME280;58975;51.978;8.472;2022-12-29T17:16:58;99256.13;;;9.07;100.00
4858;BME280;58975;51.978;8.472;2022-12-29T17:21:56;99261.44;;;9.17;100.00
4858;BME280;58975;51.978;8.472;2022-12-29T17:26:56;99298.88;;;9.14;100.00
4858;BME280;58975;51.978;8.472;2022-12-29T17:31:53;99308.09;;;8.90;100.00
4858;BME280;58975;51.978;8.472;2022-12-29T17:36:49;99300.25;;;8.60;100.00
4858;BME280;58975;51.978;8.472;2022-12-29T17:41:46;99305.56;;;8.60;100.00
4858;BME280;58975;51.978;8.472;2022-12-29T17:46:43;99309.78;;;8.72;100.00
4858;BME280;58975;51.978;8.472;2022-12-29T17:51:41;99303.06;;;8.87;100.00
4858;BME280;58975;51.978;8.472;2022-12-29T17:56:38;99306.69;;;8.86;100.00
4858;BME280;58975;51.978;8.472;2022-12-29T18:01:34;99307.25;;;8.90;100.00
4858;BME280;58975;51.978;8.472;2022-12-29T18:06:39;99322.22;;;8.81;100.00
4858;BME280;58975;51.978;8.472;2022-12-29T18:11:40;99339.78;;;8.63;100.00
4858;BME280;58975;51.978;8.472;2022-12-29T18:16:37;99349.34;;;8.35;100.00
4858;BME280;58975;51.978;8.472;2022-12-29T18:21:35;99363.72;;;8.02;100.00
4858;BME280;58975;51.978;8.472;2022-12-29T18:26:32;99385.41;;;7.87;100.00
4858;BME280;58975;51.978;8.472;2022-12-29T18:31:32;99370.94;;;7.70;100.00
4858;BME280;58975;51.978;8.472;2022-12-29T18:36:29;99381.88;;;7.56;100.00
4858;BME280;58975;51.978;8.472;2022-12-29T18:41:27;99390.47;;;7.48;100.00
4858;BME280;58975;51.978;8.472;2022-12-29T18:46:25;99389.03;;;7.44;100.00
4858;BME280;58975;51.978;8.472;2022-12-29T18:51:23;99381.00;;;7.35;100.00
4858;BME280;58975;51.978;8.472;2022-12-29T18:56:20;99392.22;;;6.95;100.00
4858;BME280;58975;51.978;8.472;2022-12-29T19:01:20;99397.91;;;6.80;100.00
4858;BME280;58975;51.978;8.472;2022-12-29T19:06:18;99407.00;;;6.66;100.00
4858;BME280;58975;51.978;8.472;2022-12-29T19:11:14;99395.19;;;6.70;100.00
4858;BME280;58975;51.978;8.472;2022-12-29T19:16:17;99407.09;;;6.64;100.00
4858;BME280;58975;51.978;8.472;2022-12-29T19:21:14;99400.00;;;6.65;100.00
4858;BME280;58975;51.978;8.472;2022-12-29T19:26:32;99389.75;;;6.72;100.00
4858;BME280;58975;51.978;8.472;2022-12-29T19:31:31;99411.53;;;6.64;100.00
4858;BME280;58975;51.978;8.472;2022-12-29T19:36:27;99412.16;;;6.56;100.00
4858;BME280;58975;51.978;8.472;2022-12-29T19:41:24;99411.44;;;6.54;100.00
4858;BME280;58975;51.978;8.472;2022-12-29T19:46:21;99426.47;;;6.54;100.00
4858;BME280;58975;51.978;8.472;2022-12-29T19:51:18;99433.91;;;6.60;100.00
4858;BME280;58975;51.978;8.472;2022-12-29T19:56:15;99431.16;;;6.61;100.00
4858;BME280;58975;51.978;8.472;2022-12-29T20:01:16;99439.22;;;6.60;100.00
4858;BME280;58975;51.978;8.472;2022-12-29T20:06:14;99455.56;;;6.54;100.00
4858;BME280;58975;51.978;8.472;2022-12-29T20:11:14;99449.91;;;6.47;100.00
4858;BME280;58975;51.978;8.472;2022-12-29T20:16:14;99455.09;;;6.38;100.00
4858;BME280;58975;51.978;8.472;2022-12-29T20:21:21;99468.91;;;6.41;100.00
4858;BME280;58975;51.978;8.472;2022-12-29T20:26:25;99467.38;;;6.39;100.00
4858;BME280;58975;51.978;8.472;2022-12-29T20:31:27;99478.41;;;6.44;100.00
4858;BME280;58975;51.978;8.472;2022-12-29T20:36:26;99466.63;;;6.37;100.00
4858;BME280;58975;51.978;8.472;2022-12-29T20:41:24;99480.09;;;6.34;100.00
4858;BME280;58975;51.978;8.472;2022-12-29T20:46:21;99485.13;;;6.37;100.00
4858;BME280;58975;51.978;8.472;2022-12-29T20:51:27;99482.13;;;6.41;100.00
4858;BME280;58975;51.978;8.472;2022-12-29T20:56:45;99497.75;;;6.44;100.00
4858;BME280;58975;51.978;8.472;2022-12-29T21:01:42;99495.97;;;6.56;100.00
4858;BME280;58975;51.978;8.472;2022-12-29T21:06:39;99493.44;;;6.54;100.00
4858;BME280;58975;51.978;8.472;2022-12-29T21:11:35;99499.44;;;6.56;100.00
4858;BME280;58975;51.978;8.472;2022-12-29T21:16:32;99504.84;;;6.55;100.00
4858;BME280;58975;51.978;8.472;2022-12-29T21:21:28;99510.28;;;6.64;100.00
4858;BME280;58975;51.978;8.472;2022-12-29T21:26:25;99518.47;;;6.61;100.00
4858;BME280;58975;51.978;8.472;2022-12-29T21:31:27;99526.03;;;6.66;100.00
4858;BME280;58975;51.978;8.472;2022-12-29T21:36:25;99534.94;;;6.65;100.00
4858;BME280;58975;51.978;8.472;2022-12-29T21:41:22;99541.41;;;6.61;100.00
4858;BME280;58975;51.978;8.472;2022-12-29T21:46:21;99544.06;;;6.61;100.00
4858;BME280;58975;51.978;8.472;2022-12-29T21:51:17;99537.31;;;6.57;100.00
4858;BME280;58975;51.978;8.472;2022-12-29T21:56:32;99544.78;;;6.63;100.00
4858;BME280;58975;51.978;8.472;2022-12-29T22:01:30;99551.50;;;6.67;100.00
4858;BME280;58975;51.978;8.472;2022-12-29T22:06:46;99558.50;;;6.68;100.00
4858;BME280;58975;51.978;8.472;2022-12-29T22:12:01;99551.06;;;6.73;100.00
4858;BME280;58975;51.978;8.472;2022-12-29T22:17:16;99551.66;;;6.77;100.00
4858;BME280;58975;51.978;8.472;2022-12-29T22:22:14;99559.84;;;6.74;100.00
4858;BME280;58975;51.978;8.472;2022-12-29T22:27:12;99556.59;;;6.70;100.00
4858;BME280;58975;51.978;8.472;2022-12-29T22:32:08;99576.16;;;6.68;100.00
4858;BME280;58975;51.978;8.472;2022-12-29T22:37:04;99577.75;;;6.70;100.00
4858;BME280;58975;51.978;8.472;2022-12-29T22:42:01;99569.56;;;6.73;100.00
4858;BME280;58975;51.978;8.472;2022-12-29T22:46:57;99572.91;;;6.64;100.00
4858;BME280;58975;51.978;8.472;2022-12-29T22:51:54;99578.47;;;6.61;100.00
4858;BME280;58975;51.978;8.472;2022-12-29T22:56:50;99592.41;;;6.63;100.00
4858;BME280;58975;51.978;8.472;2022-12-29T23:01:47;99599.13;;;6.67;100.00
4858;BME280;58975;51.978;8.472;2022-12-29T23:06:43;99595.44;;;6.70;100.00
4858;BME280;58975;51.978;8.472;2022-12-29T23:11:39;99613.81;;;6.60;100.00
4858;BME280;58975;51.978;8.472;2022-12-29T23:16:36;99620.19;;;6.57;100.00
4858;BME280;58975;51.978;8.472;2022-12-29T23:21:33;99628.63;;;6.74;100.00
4858;BME280;58975;51.978;8.472;2022-12-29T23:26:38;99640.25;;;6.60;100.00
4858;BME280;58975;51.978;8.472;2022-12-29T23:31:35;99649.38;;;6.56;100.00
4858;BME280;58975;51.978;8.472;2022-12-29T23:36:32;99652.16;;;6.54;100.00
4858;BME280;58975;51.978;8.472;2022-12-29T23:41:29;99671.63;;;6.53;100.00
4858;BME280;58975;51.978;8.472;2022-12-29T23:46:27;99677.16;;;6.50;100.00
4858;BME280;58975;51.978;8.472;2022-12-29T23:51:24;99675.69;;;6.46;100.00
4858;BME280;58975;51.978;8.472;2022-12-29T23:56:21;99683.13;;;6.41;100.00
